sensor_id;sensor_type;location;lat;lon;timestamp;pressure;altitude;pressure_sealevel;temperature;humidity
19624;BME280;9959;49.798;9.928;2022-12-18T06:12:36;101201.69;;;-11.08;83.28
19624;BME280;9959;49.798;9.928;2022-12-18T06:15:42;101213.31;;;-11.23;88.51
19624;BME280;9959;49.798;9.928;2022-12-18T06:18:47;101212.38;;;-11.20;89.97
19624;BME280;9959;49.798;9.928;2022-12-18T06:21:52;101220.94;;;-11.15;92.55
19624;BME280;9959;49.798;9.928;2022-12-18T06:25:00;101212.72;;;-10.99;92.88
19624;BME280;9959;49.798;9.928;2022-12-18T06:28:08;101218.22;;;-10.75;92.88
19624;BME280;9959;49.798;9.928;2022-12-18T06:31:13;101212.47;;;-10.55;93.39
19624;BME280;9959;49.798;9.928;2022-12-18T06:34:18;101213.13;;;-10.47;92.93
19624;BME280;9959;49.798;9.928;2022-12-18T06:37:23;101219.47;;;-10.25;93.29
19624;BME280;9959;49.798;9.928;2022-12-18T06:40:28;101209.00;;;-10.23;92.34
19624;BME280;9959;49.798;9.928;2022-12-18T06:43:36;101205.50;;;-10.22;92.63
19624;BME280;9959;49.798;9.928;2022-12-18T06:46:41;101211.00;;;-10.04;92.16
19624;BME280;9959;49.798;9.928;2022-12-18T06:49:46;101217.00;;;-10.00;92.35
19624;BME280;9959;49.798;9.928;2022-12-18T06:52:51;101215.31;;;-10.03;91.10
19624;BME280;9959;49.798;9.928;2022-12-18T06:56:00;101213.84;;;-9.82;91.16
19624;BME280;9959;49.798;9.928;2022-12-18T06:59:13;101206.88;;;-9.81;90.05
19624;BME280;9959;49.798;9.928;2022-12-18T07:02:19;101208.50;;;-9.77;89.95
19624;BME280;9959;49.798;9.928;2022-12-18T07:05:24;101219.31;;;-9.89;90.13
19624;BME280;9959;49.798;9.928;2022-12-18T07:08:29;101225.94;;;-9.79;91.24
19624;BME280;9959;49.798;9.928;2022-12-18T07:11:37;101227.34;;;-9.68;91.55
19624;BME280;9959;49.798;9.928;2022-12-18T07:14:45;101221.63;;;-9.51;91.25
19624;BME280;9959;49.798;9.928;2022-12-18T07:17:51;101227.81;;;-9.55;91.82
19624;BME280;9959;49.798;9.928;2022-12-18T07:20:56;101221.88;;;-9.31;91.67
19624;BME280;9959;49.798;9.928;2022-12-18T07:24:02;101218.28;;;-9.28;92.17
19624;BME280;9959;49.798;9.928;2022-12-18T07:27:07;101224.13;;;-9.20;91.99
19624;BME280;9959;49.798;9.928;2022-12-18T07:30:15;101226.47;;;-9.11;92.28
19624;BME280;9959;49.798;9.928;2022-12-18T07:33:20;101224.28;;;-8.98;91.38
19624;BME280;9959;49.798;9.928;2022-12-18T07:36:25;101233.84;;;-8.97;91.97
19624;BME280;9959;49.798;9.928;2022-12-18T07:39:30;101242.94;;;-8.82;90.86
19624;BME280;9959;49.798;9.928;2022-12-18T07:42:34;101249.34;;;-8.66;90.78
19624;BME280;9959;49.798;9.928;2022-12-18T07:45:42;101245.69;;;-8.61;90.88
19624;BME280;9959;49.798;9.928;2022-12-18T07:48:47;101252.03;;;-8.68;91.34
19624;BME280;9959;49.798;9.928;2022-12-18T07:51:53;101246.06;;;-8.46;90.85
19624;BME280;9959;49.798;9.928;2022-12-18T07:54:59;101246.06;;;-8.46;91.04
19624;BME280;9959;49.798;9.928;2022-12-18T07:58:04;101247.78;;;-8.45;89.95
19624;BME280;9959;49.798;9.928;2022-12-18T08:01:12;101236.31;;;-8.18;89.42
19624;BME280;9959;49.798;9.928;2022-12-18T08:04:18;101245.97;;;-8.20;89.77
19624;BME280;9959;49.798;9.928;2022-12-18T08:07:23;101241.09;;;-8.29;90.62
19624;BME280;9959;49.798;9.928;2022-12-18T08:10:27;101239.97;;;-8.22;90.09
19624;BME280;9959;49.798;9.928;2022-12-18T08:13:32;101241.44;;;-8.15;89.95
19624;BME280;9959;49.798;9.928;2022-12-18T08:16:40;101248.94;;;-8.04;89.50
19624;BME280;9959;49.798;9.928;2022-12-18T08:19:45;101251.69;;;-8.09;90.50
19624;BME280;9959;49.798;9.928;2022-12-18T08:22:50;101252.53;;;-8.08;90.19
19624;BME280;9959;49.798;9.928;2022-12-18T08:25:58;101255.69;;;-7.99;90.69
19624;BME280;9959;49.798;9.928;2022-12-18T08:29:03;101254.53;;;-7.92;89.36
19624;BME280;9959;49.798;9.928;2022-12-18T08:32:10;101254.69;;;-7.95;90.04
19624;BME280;9959;49.798;9.928;2022-12-18T08:35:15;101250.69;;;-7.81;90.72
19624;BME280;9959;49.798;9.928;2022-12-18T08:38:20;101254.22;;;-7.59;89.57
19624;BME280;9959;49.798;9.928;2022-12-18T08:41:25;101245.19;;;-7.29;89.12
19624;BME280;9959;49.798;9.928;2022-12-18T08:44:31;101227.00;;;-7.32;88.50
19624;BME280;9959;49.798;9.928;2022-12-18T08:47:41;101230.84;;;-7.19;88.53
19624;BME280;9959;49.798;9.928;2022-12-18T08:50:54;101238.59;;;-7.15;87.69
19624;BME280;9959;49.798;9.928;2022-12-18T08:53:58;101232.66;;;-7.21;88.36
19624;BME280;9959;49.798;9.928;2022-12-18T08:57:05;101239.72;;;-7.23;88.85
19624;BME280;9959;49.798;9.928;2022-12-18T09:00:11;101227.78;;;-7.08;88.56
19624;BME280;9959;49.798;9.928;2022-12-18T09:03:20;101222.91;;;-6.95;88.07
19624;BME280;9959;49.798;9.928;2022-12-18T09:06:26;101227.91;;;-6.89;86.80
19624;BME280;9959;49.798;9.928;2022-12-18T09:09:31;101228.97;;;-6.73;87.60
19624;BME280;9959;49.798;9.928;2022-12-18T09:12:36;101227.94;;;-6.49;87.13
19624;BME280;9959;49.798;9.928;2022-12-18T09:15:41;101222.03;;;-6.74;87.00
19624;BME280;9959;49.798;9.928;2022-12-18T09:18:49;101226.84;;;-6.63;86.81
19624;BME280;9959;49.798;9.928;2022-12-18T09:21:55;101219.69;;;-6.60;87.21
19624;BME280;9959;49.798;9.928;2022-12-18T09:25:05;101218.13;;;-6.64;87.28
19624;BME280;9959;49.798;9.928;2022-12-18T09:28:12;101231.41;;;-6.28;86.74
19624;BME280;9959;49.798;9.928;2022-12-18T09:31:19;101224.66;;;-6.54;86.89
19624;BME280;9959;49.798;9.928;2022-12-18T09:34:27;101219.91;;;-6.44;87.04
19624;BME280;9959;49.798;9.928;2022-12-18T09:37:32;101204.34;;;-6.28;86.48
19624;BME280;9959;49.798;9.928;2022-12-18T09:40:42;101193.56;;;-6.02;87.00
19624;BME280;9959;49.798;9.928;2022-12-18T09:43:50;101196.03;;;-5.99;86.62
19624;BME280;9959;49.798;9.928;2022-12-18T09:47:04;101195.47;;;-5.68;85.12
19624;BME280;9959;49.798;9.928;2022-12-18T09:50:24;101190.38;;;-5.52;85.25
19624;BME280;9959;49.798;9.928;2022-12-18T09:53:34;101196.38;;;-5.88;86.26
19624;BME280;9959;49.798;9.928;2022-12-18T09:56:42;101183.72;;;-5.78;86.09
19624;BME280;9959;49.798;9.928;2022-12-18T09:59:51;101196.94;;;-5.43;86.29
19624;BME280;9959;49.798;9.928;2022-12-18T10:03:00;101191.75;;;-5.45;86.83
19624;BME280;9959;49.798;9.928;2022-12-18T10:06:14;101203.63;;;-5.55;87.10
19624;BME280;9959;49.798;9.928;2022-12-18T10:09:27;101204.50;;;-5.55;88.12
19624;BME280;9959;49.798;9.928;2022-12-18T10:12:40;101207.22;;;-5.39;87.45
19624;BME280;9959;49.798;9.928;2022-12-18T10:16:09;101211.47;;;-5.18;87.24
19624;BME280;9959;49.798;9.928;2022-12-18T10:19:33;101204.22;;;-5.13;86.37
19624;BME280;9959;49.798;9.928;2022-12-18T10:22:48;101199.44;;;-5.22;87.49
19624;BME280;9959;49.798;9.928;2022-12-18T10:25:59;101203.56;;;-5.18;86.70
19624;BME280;9959;49.798;9.928;2022-12-18T10:29:09;101185.19;;;-5.18;87.23
19624;BME280;9959;49.798;9.928;2022-12-18T10:32:17;101182.81;;;-5.22;86.44
19624;BME280;9959;49.798;9.928;2022-12-18T10:35:24;101180.41;;;-5.27;87.17
19624;BME280;9959;49.798;9.928;2022-12-18T10:38:32;101163.44;;;-4.85;86.36
19624;BME280;9959;49.798;9.928;2022-12-18T10:41:37;101168.19;;;-5.28;86.80
19624;BME280;9959;49.798;9.928;2022-12-18T10:44:42;101165.88;;;-5.17;87.31
19624;BME280;9959;49.798;9.928;2022-12-18T10:47:49;101161.44;;;-4.97;87.44
19624;BME280;9959;49.798;9.928;2022-12-18T10:50:54;101178.59;;;-4.90;86.69
19624;BME280;9959;49.798;9.928;2022-12-18T10:54:17;101181.19;;;-5.07;87.04
19624;BME280;9959;49.798;9.928;2022-12-18T10:57:35;101184.91;;;-5.12;87.81
19624;BME280;9959;49.798;9.928;2022-12-18T11:00:41;101174.59;;;-4.80;87.65
19624;BME280;9959;49.798;9.928;2022-12-18T11:03:59;101168.63;;;-5.01;87.57
19624;BME280;9959;49.798;9.928;2022-12-18T11:07:07;101163.00;;;-4.76;87.32
19624;BME280;9959;49.798;9.928;2022-12-18T11:10:17;101169.63;;;-4.86;86.97
19624;BME280;9959;49.798;9.928;2022-12-18T11:13:24;101158.50;;;-4.74;87.63
19624;BME280;9959;49.798;9.928;2022-12-18T11:16:33;101148.00;;;-4.74;86.73
19624;BME280;9959;49.798;9.928;2022-12-18T11:19:54;101123.53;;;-4.59;87.00
19624;BME280;9959;49.798;9.928;2022-12-18T11:23:02;101124.00;;;-4.51;87.52
19624;BME280;9959;49.798;9.928;2022-12-18T11:26:11;101121.28;;;-4.49;88.22
19624;BME280;9959;49.798;9.928;2022-12-18T11:29:18;101111.31;;;-4.27;87.22
19624;BME280;9959;49.798;9.928;2022-12-18T11:32:34;101107.78;;;-4.10;86.72
19624;BME280;9959;49.798;9.928;2022-12-18T11:35:44;101107.28;;;-4.17;87.16
19624;BME280;9959;49.798;9.928;2022-12-18T11:38:53;101103.84;;;-3.86;86.19
19624;BME280;9959;49.798;9.928;2022-12-18T11:42:05;101104.50;;;-3.51;84.02
19624;BME280;9959;49.798;9.928;2022-12-18T11:45:30;101097.22;;;-3.16;82.13
19624;BME280;9959;49.798;9.928;2022-12-18T11:49:21;101099.00;;;-2.86;81.28
19624;BME280;9959;49.798;9.928;2022-12-18T11:52:21;101107.34;;;-2.94;80.36
19624;BME280;9959;49.798;9.928;2022-12-18T11:55:33;101108.72;;;-2.73;79.85
19624;BME280;9959;49.798;9.928;2022-12-18T11:58:58;101101.22;;;-2.94;80.02
19624;BME280;9959;49.798;9.928;2022-12-18T12:02:28;101107.09;;;-2.89;79.99
19624;BME280;9959;49.798;9.928;2022-12-18T12:05:46;101096.97;;;-2.97;80.54
19624;BME280;9959;49.798;9.928;2022-12-18T12:09:02;101090.56;;;-2.63;79.21
19624;BME280;9959;49.798;9.928;2022-12-18T12:12:24;101077.19;;;-2.46;78.08
19624;BME280;9959;49.798;9.928;2022-12-18T12:16:03;101080.00;;;-2.63;78.25
19624;BME280;9959;49.798;9.928;2022-12-18T12:19:20;101062.25;;;-2.89;80.00
19624;BME280;9959;49.798;9.928;2022-12-18T12:22:32;101054.56;;;-2.64;78.90
19624;BME280;9959;49.798;9.928;2022-12-18T12:25:43;101044.22;;;-2.53;78.05
19624;BME280;9959;49.798;9.928;2022-12-18T12:29:09;101045.50;;;-2.17;75.95
19624;BME280;9959;49.798;9.928;2022-12-18T12:32:32;101046.28;;;-2.29;76.72
19624;BME280;9959;49.798;9.928;2022-12-18T12:35:47;101064.34;;;-2.66;78.11
19624;BME280;9959;49.798;9.928;2022-12-18T12:38:58;101067.28;;;-2.70;78.01
19624;BME280;9959;49.798;9.928;2022-12-18T12:42:10;101074.16;;;-2.40;77.59
19624;BME280;9959;49.798;9.928;2022-12-18T12:45:34;101073.81;;;-2.48;78.01
19624;BME280;9959;49.798;9.928;2022-12-18T12:48:47;101073.69;;;-2.18;76.85
19624;BME280;9959;49.798;9.928;2022-12-18T12:51:58;101070.78;;;-2.27;76.90
19624;BME280;9959;49.798;9.928;2022-12-18T12:55:07;101067.03;;;-2.23;76.85
19624;BME280;9959;49.798;9.928;2022-12-18T12:58:25;101051.56;;;-2.29;77.34
19624;BME280;9959;49.798;9.928;2022-12-18T13:01:39;101037.59;;;-2.31;76.50
19624;BME280;9959;49.798;9.928;2022-12-18T13:04:52;101040.44;;;-2.49;77.63
19624;BME280;9959;49.798;9.928;2022-12-18T13:08:02;101039.84;;;-2.11;77.08
19624;BME280;9959;49.798;9.928;2022-12-18T13:11:32;101033.63;;;-2.10;76.86
19624;BME280;9959;49.798;9.928;2022-12-18T13:15:12;101028.50;;;-1.99;76.48
19624;BME280;9959;49.798;9.928;2022-12-18T13:18:22;101035.06;;;-2.33;76.99
19624;BME280;9959;49.798;9.928;2022-12-18T13:21:33;101035.16;;;-2.34;78.45
19624;BME280;9959;49.798;9.928;2022-12-18T13:24:39;101037.00;;;-2.08;76.43
19624;BME280;9959;49.798;9.928;2022-12-18T13:28:15;101037.28;;;-2.13;76.72
19624;BME280;9959;49.798;9.928;2022-12-18T13:31:57;101031.00;;;-2.39;77.69
19624;BME280;9959;49.798;9.928;2022-12-18T13:38:41;101023.94;;;-2.24;77.75
19624;BME280;9959;49.798;9.928;2022-12-18T13:41:47;101020.34;;;-2.23;77.75
19624;BME280;9959;49.798;9.928;2022-12-18T13:44:54;101009.34;;;-2.29;78.32
19624;BME280;9959;49.798;9.928;2022-12-18T13:47:59;101005.22;;;-2.48;78.88
19624;BME280;9959;49.798;9.928;2022-12-18T13:51:06;100992.75;;;-2.31;78.31
19624;BME280;9959;49.798;9.928;2022-12-18T13:54:23;100992.38;;;-2.40;78.75
19624;BME280;9959;49.798;9.928;2022-12-18T13:57:31;100990.00;;;-2.30;78.38
19624;BME280;9959;49.798;9.928;2022-12-18T14:00:41;100990.50;;;-2.52;79.63
19624;BME280;9959;49.798;9.928;2022-12-18T14:03:47;101002.16;;;-2.42;79.91
19624;BME280;9959;49.798;9.928;2022-12-18T14:06:57;101003.66;;;-2.23;78.41
19624;BME280;9959;49.798;9.928;2022-12-18T14:10:13;101006.91;;;-2.47;79.85
19624;BME280;9959;49.798;9.928;2022-12-18T14:13:42;101014.81;;;-2.61;80.50
19624;BME280;9959;49.798;9.928;2022-12-18T14:16:47;101019.44;;;-2.64;80.96
19624;BME280;9959;49.798;9.928;2022-12-18T14:19:53;101021.69;;;-2.58;80.83
19624;BME280;9959;49.798;9.928;2022-12-18T14:22:58;101028.38;;;-2.53;80.14
19624;BME280;9959;49.798;9.928;2022-12-18T14:26:24;101038.75;;;-2.64;80.29
19624;BME280;9959;49.798;9.928;2022-12-18T14:29:31;101042.34;;;-2.51;79.72
19624;BME280;9959;49.798;9.928;2022-12-18T14:32:36;101044.78;;;-2.62;80.65
19624;BME280;9959;49.798;9.928;2022-12-18T14:35:42;101033.19;;;-2.59;80.88
19624;BME280;9959;49.798;9.928;2022-12-18T14:38:52;101031.13;;;-2.54;80.44
19624;BME280;9959;49.798;9.928;2022-12-18T14:42:01;101035.91;;;-2.61;80.90
19624;BME280;9959;49.798;9.928;2022-12-18T14:45:36;101033.28;;;-2.75;81.33
19624;BME280;9959;49.798;9.928;2022-12-18T14:48:47;101026.88;;;-2.57;81.13
19624;BME280;9959;49.798;9.928;2022-12-18T14:51:53;101031.00;;;-2.67;81.54
19624;BME280;9959;49.798;9.928;2022-12-18T14:54:58;101025.72;;;-2.67;81.56
19624;BME280;9959;49.798;9.928;2022-12-18T14:58:14;101029.31;;;-2.68;81.50
19624;BME280;9959;49.798;9.928;2022-12-18T15:01:23;101030.81;;;-2.64;81.74
19624;BME280;9959;49.798;9.928;2022-12-18T15:04:31;101040.63;;;-2.66;81.20
19624;BME280;9959;49.798;9.928;2022-12-18T15:07:40;101029.88;;;-2.77;81.91
19624;BME280;9959;49.798;9.928;2022-12-18T15:10:47;101038.16;;;-2.83;82.76
19624;BME280;9959;49.798;9.928;2022-12-18T15:13:54;101042.50;;;-2.82;82.52
19624;BME280;9959;49.798;9.928;2022-12-18T15:17:00;101034.78;;;-2.85;82.75
19624;BME280;9959;49.798;9.928;2022-12-18T15:20:10;101041.25;;;-2.91;83.41
19624;BME280;9959;49.798;9.928;2022-12-18T15:23:18;101038.63;;;-2.91;83.38
19624;BME280;9959;49.798;9.928;2022-12-18T15:26:24;101043.81;;;-2.89;82.92
19624;BME280;9959;49.798;9.928;2022-12-18T15:29:31;101046.44;;;-2.89;83.49
19624;BME280;9959;49.798;9.928;2022-12-18T15:32:37;101042.50;;;-2.82;82.92
19624;BME280;9959;49.798;9.928;2022-12-18T15:35:43;101041.16;;;-2.89;82.99
19624;BME280;9959;49.798;9.928;2022-12-18T15:38:48;101034.56;;;-2.96;83.97
19624;BME280;9959;49.798;9.928;2022-12-18T15:42:08;101031.63;;;-3.06;84.40
19624;BME280;9959;49.798;9.928;2022-12-18T15:45:28;101036.25;;;-2.95;83.88
19624;BME280;9959;49.798;9.928;2022-12-18T15:48:34;101031.06;;;-2.97;84.26
19624;BME280;9959;49.798;9.928;2022-12-18T15:51:39;101036.44;;;-2.98;84.45
19624;BME280;9959;49.798;9.928;2022-12-18T15:54:46;101032.66;;;-2.94;83.91
19624;BME280;9959;49.798;9.928;2022-12-18T15:58:03;101033.78;;;-2.98;84.02
19624;BME280;9959;49.798;9.928;2022-12-18T16:01:11;101036.44;;;-2.98;84.24
19624;BME280;9959;49.798;9.928;2022-12-18T16:04:19;101033.53;;;-2.94;84.14
19624;BME280;9959;49.798;9.928;2022-12-18T16:07:25;101032.84;;;-2.97;83.83
19624;BME280;9959;49.798;9.928;2022-12-18T16:10:31;101030.13;;;-2.96;83.81
19624;BME280;9959;49.798;9.928;2022-12-18T16:13:37;101031.91;;;-2.96;83.95
19624;BME280;9959;49.798;9.928;2022-12-18T16:16:47;101027.22;;;-3.05;83.99
19624;BME280;9959;49.798;9.928;2022-12-18T16:19:52;101030.31;;;-2.99;83.85
19624;BME280;9959;49.798;9.928;2022-12-18T16:22:57;101025.34;;;-2.89;83.23
19624;BME280;9959;49.798;9.928;2022-12-18T16:26:02;101023.47;;;-3.01;84.02
19624;BME280;9959;49.798;9.928;2022-12-18T16:29:07;101026.28;;;-3.04;84.59
19624;BME280;9959;49.798;9.928;2022-12-18T16:32:17;101027.41;;;-2.94;83.55
19624;BME280;9959;49.798;9.928;2022-12-18T16:35:25;101025.88;;;-2.98;83.55
19624;BME280;9959;49.798;9.928;2022-12-18T16:38:30;101010.28;;;-3.01;83.78
19624;BME280;9959;49.798;9.928;2022-12-18T16:41:35;101019.13;;;-3.02;83.59
19624;BME280;9959;49.798;9.928;2022-12-18T16:44:41;101021.56;;;-2.99;83.78
19624;BME280;9959;49.798;9.928;2022-12-18T16:47:49;101019.31;;;-3.05;83.83
19624;BME280;9959;49.798;9.928;2022-12-18T16:50:59;101021.75;;;-3.02;84.10
19624;BME280;9959;49.798;9.928;2022-12-18T16:54:05;101017.44;;;-3.03;83.73
19624;BME280;9959;49.798;9.928;2022-12-18T16:57:18;101012.34;;;-3.07;83.84
19624;BME280;9959;49.798;9.928;2022-12-18T17:00:26;101000.09;;;-3.08;84.33
19624;BME280;9959;49.798;9.928;2022-12-18T17:03:33;100994.66;;;-3.04;84.41
19624;BME280;9959;49.798;9.928;2022-12-18T17:06:41;100989.19;;;-3.01;83.79
19624;BME280;9959;49.798;9.928;2022-12-18T17:09:46;100982.00;;;-3.14;84.40
19624;BME280;9959;49.798;9.928;2022-12-18T17:12:51;100977.44;;;-3.26;84.79
19624;BME280;9959;49.798;9.928;2022-12-18T17:16:01;100981.59;;;-3.22;84.57
19624;BME280;9959;49.798;9.928;2022-12-18T17:19:10;100977.75;;;-3.16;84.09
19624;BME280;9959;49.798;9.928;2022-12-18T17:22:18;100976.34;;;-3.22;84.27
19624;BME280;9959;49.798;9.928;2022-12-18T17:25:24;100976.16;;;-3.19;84.31
19624;BME280;9959;49.798;9.928;2022-12-18T17:28:29;100981.44;;;-3.19;84.00
19624;BME280;9959;49.798;9.928;2022-12-18T17:31:34;100985.19;;;-3.23;84.51
19624;BME280;9959;49.798;9.928;2022-12-18T17:34:42;100985.56;;;-3.29;84.74
19624;BME280;9959;49.798;9.928;2022-12-18T17:37:47;100989.13;;;-3.30;84.40
19624;BME280;9959;49.798;9.928;2022-12-18T17:40:52;100976.31;;;-3.36;84.79
19624;BME280;9959;49.798;9.928;2022-12-18T17:43:59;100979.72;;;-3.34;84.37
19624;BME280;9959;49.798;9.928;2022-12-18T17:47:04;100991.28;;;-3.36;84.70
19624;BME280;9959;49.798;9.928;2022-12-18T17:50:15;100986.28;;;-3.27;84.63
19624;BME280;9959;49.798;9.928;2022-12-18T17:53:20;100988.47;;;-3.33;84.12
19624;BME280;9959;49.798;9.928;2022-12-18T17:56:25;100986.78;;;-3.34;83.91
19624;BME280;9959;49.798;9.928;2022-12-18T17:59:31;100984.81;;;-3.31;84.06
19624;BME280;9959;49.798;9.928;2022-12-18T18:02:36;100991.38;;;-3.38;84.04
19624;BME280;9959;49.798;9.928;2022-12-18T18:05:44;100995.03;;;-3.41;84.66
19624;BME280;9959;49.798;9.928;2022-12-18T18:08:49;100991.53;;;-3.41;84.20
19624;BME280;9959;49.798;9.928;2022-12-18T18:11:54;100995.25;;;-3.29;83.15
19624;BME280;9959;49.798;9.928;2022-12-18T18:15:12;100991.53;;;-3.41;83.61
19624;BME280;9959;49.798;9.928;2022-12-18T18:18:19;100999.34;;;-3.39;83.59
19624;BME280;9959;49.798;9.928;2022-12-18T18:21:28;100989.09;;;-3.44;83.89
19624;BME280;9959;49.798;9.928;2022-12-18T18:24:33;100986.97;;;-3.53;84.50
19624;BME280;9959;49.798;9.928;2022-12-18T18:27:38;100986.44;;;-3.44;83.80
19624;BME280;9959;49.798;9.928;2022-12-18T18:30:44;100990.38;;;-3.51;83.98
19624;BME280;9959;49.798;9.928;2022-12-18T18:33:49;100983.59;;;-3.55;84.08
19624;BME280;9959;49.798;9.928;2022-12-18T18:36:57;100984.16;;;-3.50;83.98
19624;BME280;9959;49.798;9.928;2022-12-18T18:40:03;100979.28;;;-3.56;83.92
19624;BME280;9959;49.798;9.928;2022-12-18T18:43:08;100970.03;;;-3.63;84.43
19624;BME280;9959;49.798;9.928;2022-12-18T18:46:14;100970.72;;;-3.60;84.09
19624;BME280;9959;49.798;9.928;2022-12-18T18:49:20;100981.81;;;-3.55;84.11
19624;BME280;9959;49.798;9.928;2022-12-18T18:52:30;100964.00;;;-3.65;84.23
19624;BME280;9959;49.798;9.928;2022-12-18T18:55:39;100965.03;;;-3.68;84.75
19624;BME280;9959;49.798;9.928;2022-12-18T18:58:45;100963.41;;;-3.70;85.04
19624;BME280;9959;49.798;9.928;2022-12-18T19:01:50;100968.50;;;-3.67;85.04
19624;BME280;9959;49.798;9.928;2022-12-18T19:04:55;100952.88;;;-3.70;84.67
19624;BME280;9959;49.798;9.928;2022-12-18T19:08:03;100946.69;;;-3.69;85.30
19624;BME280;9959;49.798;9.928;2022-12-18T19:11:09;100940.84;;;-3.75;85.53
19624;BME280;9959;49.798;9.928;2022-12-18T19:14:27;100943.47;;;-3.75;85.24
19624;BME280;9959;49.798;9.928;2022-12-18T19:17:32;100932.31;;;-3.64;84.61
19624;BME280;9959;49.798;9.928;2022-12-18T19:20:38;100931.66;;;-3.67;85.25
19624;BME280;9959;49.798;9.928;2022-12-18T19:23:46;100936.38;;;-3.58;85.44
19624;BME280;9959;49.798;9.928;2022-12-18T19:26:51;100933.16;;;-3.63;85.62
19624;BME280;9959;49.798;9.928;2022-12-18T19:29:58;100928.06;;;-3.66;86.06
19624;BME280;9959;49.798;9.928;2022-12-18T19:33:04;100925.72;;;-3.71;86.11
19624;BME280;9959;49.798;9.928;2022-12-18T19:36:30;100939.81;;;-3.72;86.04
19624;BME280;9959;49.798;9.928;2022-12-18T19:39:38;100938.88;;;-3.71;85.60
19624;BME280;9959;49.798;9.928;2022-12-18T19:42:43;100935.06;;;-3.81;86.41
19624;BME280;9959;49.798;9.928;2022-12-18T19:45:53;100942.19;;;-3.67;85.91
19624;BME280;9959;49.798;9.928;2022-12-18T19:48:58;100947.78;;;-3.73;86.42
19624;BME280;9959;49.798;9.928;2022-12-18T19:52:04;100952.81;;;-3.69;86.74
19624;BME280;9959;49.798;9.928;2022-12-18T19:55:12;100949.66;;;-3.76;86.57
19624;BME280;9959;49.798;9.928;2022-12-18T19:58:17;100952.47;;;-3.79;86.88
19624;BME280;9959;49.798;9.928;2022-12-18T20:01:24;100956.22;;;-3.83;87.30
19624;BME280;9959;49.798;9.928;2022-12-18T20:04:30;100942.31;;;-3.85;87.54
19624;BME280;9959;49.798;9.928;2022-12-18T20:07:35;100939.13;;;-3.76;86.52
19624;BME280;9959;49.798;9.928;2022-12-18T20:10:45;100928.16;;;-3.68;86.95
19624;BME280;9959;49.798;9.928;2022-12-18T20:13:51;100923.81;;;-3.83;86.99
19624;BME280;9959;49.798;9.928;2022-12-18T20:16:56;100911.06;;;-3.91;87.98
19624;BME280;9959;49.798;9.928;2022-12-18T20:20:01;100914.66;;;-3.92;87.95
19624;BME280;9959;49.798;9.928;2022-12-18T20:23:06;100920.66;;;-3.90;87.81
19624;BME280;9959;49.798;9.928;2022-12-18T20:26:14;100918.31;;;-3.94;88.21
19624;BME280;9959;49.798;9.928;2022-12-18T20:29:18;100915.59;;;-3.93;88.09
19624;BME280;9959;49.798;9.928;2022-12-18T20:32:23;100908.94;;;-3.84;87.92
19624;BME280;9959;49.798;9.928;2022-12-18T20:35:36;100898.50;;;-3.86;88.10
19624;BME280;9959;49.798;9.928;2022-12-18T20:38:41;100906.56;;;-3.89;88.35
19624;BME280;9959;49.798;9.928;2022-12-18T20:41:49;100907.09;;;-3.98;88.65
19624;BME280;9959;49.798;9.928;2022-12-18T20:44:54;100906.94;;;-3.95;88.53
19624;BME280;9959;49.798;9.928;2022-12-18T20:47:59;100916.94;;;-3.86;88.32
19624;BME280;9959;49.798;9.928;2022-12-18T20:51:06;100914.22;;;-3.84;88.63
19624;BME280;9959;49.798;9.928;2022-12-18T20:54:11;100908.44;;;-3.91;88.66
19624;BME280;9959;49.798;9.928;2022-12-18T20:57:18;100909.69;;;-3.82;88.10
19624;BME280;9959;49.798;9.928;2022-12-18T21:00:23;100910.66;;;-3.83;88.26
19624;BME280;9959;49.798;9.928;2022-12-18T21:03:28;100905.00;;;-3.77;87.90
19624;BME280;9959;49.798;9.928;2022-12-18T21:06:33;100898.88;;;-3.78;88.16
19624;BME280;9959;49.798;9.928;2022-12-18T21:09:39;100895.31;;;-3.77;87.78
19624;BME280;9959;49.798;9.928;2022-12-18T21:12:47;100901.66;;;-3.65;87.68
19624;BME280;9959;49.798;9.928;2022-12-18T21:16:05;100893.00;;;-3.67;86.85
19624;BME280;9959;49.798;9.928;2022-12-18T21:19:13;100901.38;;;-3.60;87.12
19624;BME280;9959;49.798;9.928;2022-12-18T21:22:18;100916.97;;;-3.71;87.08
19624;BME280;9959;49.798;9.928;2022-12-18T21:25:23;100908.56;;;-3.78;87.72
19624;BME280;9959;49.798;9.928;2022-12-18T21:28:31;100900.56;;;-3.77;87.52
19624;BME280;9959;49.798;9.928;2022-12-18T21:31:37;100900.56;;;-3.77;87.74
19624;BME280;9959;49.798;9.928;2022-12-18T21:34:42;100905.09;;;-3.79;87.69
19624;BME280;9959;49.798;9.928;2022-12-18T21:37:49;100916.94;;;-3.86;88.03
19624;BME280;9959;49.798;9.928;2022-12-18T21:40:54;100897.94;;;-3.77;87.57
19624;BME280;9959;49.798;9.928;2022-12-18T21:44:02;100895.13;;;-3.73;87.56
19624;BME280;9959;49.798;9.928;2022-12-18T21:47:08;100903.34;;;-3.64;86.50
19624;BME280;9959;49.798;9.928;2022-12-18T21:50:23;100886.13;;;-3.69;87.13
19624;BME280;9959;49.798;9.928;2022-12-18T21:53:28;100906.34;;;-3.70;86.90
19624;BME280;9959;49.798;9.928;2022-12-18T21:56:46;100905.97;;;-3.64;86.21
19624;BME280;9959;49.798;9.928;2022-12-18T21:59:54;100899.50;;;-3.58;86.19
19624;BME280;9959;49.798;9.928;2022-12-18T22:02:59;100902.09;;;-3.72;86.66
19624;BME280;9959;49.798;9.928;2022-12-18T22:06:19;100889.34;;;-3.64;86.32
19624;BME280;9959;49.798;9.928;2022-12-18T22:09:24;100877.09;;;-3.65;86.65
19624;BME280;9959;49.798;9.928;2022-12-18T22:12:29;100861.88;;;-3.60;86.21
19624;BME280;9959;49.798;9.928;2022-12-18T22:15:47;100863.41;;;-3.56;85.91
19624;BME280;9959;49.798;9.928;2022-12-18T22:18:52;100867.91;;;-3.58;86.02
19624;BME280;9959;49.798;9.928;2022-12-18T22:21:57;100873.81;;;-3.69;85.89
19624;BME280;9959;49.798;9.928;2022-12-18T22:25:03;100873.34;;;-3.61;86.13
19624;BME280;9959;49.798;9.928;2022-12-18T22:28:08;100873.44;;;-3.49;85.76
19624;BME280;9959;49.798;9.928;2022-12-18T22:31:28;100889.91;;;-3.45;85.10
19624;BME280;9959;49.798;9.928;2022-12-18T22:34:33;100915.09;;;-3.55;85.79
19624;BME280;9959;49.798;9.928;2022-12-18T22:37:39;100921.34;;;-3.42;84.71
19624;BME280;9959;49.798;9.928;2022-12-18T22:40:44;100914.22;;;-3.40;84.51
19624;BME280;9959;49.798;9.928;2022-12-18T22:43:49;100882.91;;;-3.30;84.52
19624;BME280;9959;49.798;9.928;2022-12-18T22:46:56;100885.13;;;-3.38;85.08
19624;BME280;9959;49.798;9.928;2022-12-18T22:50:10;100878.09;;;-3.38;85.07
19624;BME280;9959;49.798;9.928;2022-12-18T22:53:15;100893.56;;;-3.62;85.79
19624;BME280;9959;49.798;9.928;2022-12-18T22:56:20;100880.59;;;-3.51;85.19